createdAt,value
2023-02-15T00:00:11.906Z,37.13
2023-02-15T00:02:45.278Z,38.50
2023-02-15T00:05:12.153Z,38.40
2023-02-15T00:07:45.300Z,37.95
2023-02-15T00:10:12.237Z,35.75
2023-02-15T00:12:45.270Z,36.47
2023-02-15T00:15:18.299Z,34.80
2023-02-15T00:17:51.301Z,33.70
2023-02-15T00:20:24.330Z,32.92
2023-02-15T00:22:51.228Z,33.70
2023-02-15T00:25:24.292Z,31.08
2023-02-15T00:27:57.310Z,34.15
2023-02-15T00:30:39.319Z,31.77
2023-02-15T00:33:06.196Z,33.17
2023-02-15T00:35:39.365Z,33.15
2023-02-15T00:38:06.261Z,29.52
2023-02-15T00:40:39.359Z,29.63
2023-02-15T00:43:06.303Z,29.92
2023-02-15T00:45:33.167Z,29.15
2023-02-15T00:48:06.290Z,29.30
2023-02-15T00:50:40.054Z,29.10
2023-02-15T00:53:13.307Z,28.08
2023-02-15T00:55:40.196Z,28.00
2023-02-15T00:58:17.317Z,28.92
2023-02-15T01:00:52.351Z,28.88
2023-02-15T01:03:26.289Z,29.13
2023-02-15T01:05:53.170Z,26.35
2023-02-15T01:08:26.360Z,28.98
2023-02-15T01:11:00.330Z,27.92
2023-02-15T01:13:33.339Z,26.77
2023-02-15T01:16:00.651Z,28.05
2023-02-15T01:18:34.334Z,28.52
2023-02-15T01:21:01.263Z,29.25
2023-02-15T01:23:34.330Z,31.08
2023-02-15T01:26:03.910Z,32.03
2023-02-15T01:28:37.334Z,30.63
2023-02-15T01:31:16.784Z,31.45
2023-02-15T01:33:50.323Z,28.80
2023-02-15T01:36:17.269Z,27.67
2023-02-15T01:38:50.373Z,29.13
2023-02-15T01:41:17.267Z,28.23
2023-02-15T01:43:49.210Z,26.70
2023-02-15T01:46:24.373Z,27.10
2023-02-15T01:49:26.384Z,29.10
2023-02-15T01:51:53.311Z,27.45
2023-02-15T01:54:34.321Z,28.70
2023-02-15T01:57:06.366Z,28.92
2023-02-15T01:59:40.338Z,29.15
2023-02-15T02:02:08.169Z,27.95
2023-02-15T02:05:02.372Z,26.30
2023-02-15T02:07:30.339Z,26.83
2023-02-15T02:10:03.364Z,26.50
2023-02-15T02:12:30.319Z,27.42
2023-02-15T02:14:57.205Z,27.80
2023-02-15T02:17:48.343Z,29.25
2023-02-15T02:20:53.293Z,27.70
2023-02-15T02:23:35.370Z,29.85
2023-02-15T02:26:36.356Z,27.95
2023-02-15T02:30:10.409Z,28.52
2023-02-15T02:33:20.346Z,28.77
2023-02-15T02:35:54.291Z,29.10
2023-02-15T02:38:48.355Z,26.25
2023-02-15T02:41:33.171Z,25.65
2023-02-15T02:44:41.370Z,28.70
2023-02-15T02:47:55.412Z,26.80
2023-02-15T02:50:28.989Z,27.77
2023-02-15T02:53:04.409Z,28.02
2023-02-15T02:55:41.910Z,27.88
2023-02-15T02:58:21.365Z,26.35
2023-02-15T03:01:16.346Z,28.48
2023-02-15T03:03:58.885Z,28.00
2023-02-15T03:07:04.362Z,29.55
2023-02-15T03:09:34.159Z,28.35
2023-02-15T03:12:08.407Z,26.45
2023-02-15T03:14:35.327Z,27.77
2023-02-15T03:17:08.350Z,25.45
2023-02-15T03:19:36.868Z,25.75
2023-02-15T03:22:28.380Z,27.00
2023-02-15T03:25:12.430Z,25.33
2023-02-15T03:27:45.848Z,25.98
2023-02-15T03:30:19.548Z,26.30
2023-02-15T03:32:46.504Z,26.63
2023-02-15T03:35:20.382Z,26.30
2023-02-15T03:37:56.740Z,26.80
2023-02-15T03:40:38.392Z,26.98
2023-02-15T03:43:08.253Z,26.83
2023-02-15T03:45:35.125Z,27.27
2023-02-15T03:48:08.384Z,26.55
2023-02-15T03:50:43.411Z,26.48
2023-02-15T03:53:19.790Z,24.58
2023-02-15T03:55:48.892Z,24.77
2023-02-15T03:58:22.464Z,23.48
2023-02-15T04:01:26.753Z,21.98
2023-02-15T04:04:27.422Z,23.77
2023-02-15T04:06:54.348Z,21.33
2023-02-15T04:09:27.383Z,23.85
2023-02-15T04:12:00.375Z,24.20
2023-02-15T04:14:33.371Z,25.50
2023-02-15T04:17:00.220Z,22.55
2023-02-15T04:19:33.387Z,25.23
2023-02-15T04:22:00.234Z,25.33
2023-02-15T04:24:33.391Z,25.88
2023-02-15T04:27:00.541Z,25.85
2023-02-15T04:29:34.424Z,25.02
2023-02-15T04:32:08.467Z,23.88
2023-02-15T04:34:35.353Z,26.67
2023-02-15T04:37:08.383Z,25.27
2023-02-15T04:39:41.381Z,26.35
2023-02-15T04:42:08.290Z,25.20
2023-02-15T04:44:35.176Z,25.58
2023-02-15T04:47:08.424Z,27.02
2023-02-15T04:49:35.321Z,26.73
2023-02-15T04:52:08.388Z,25.13
2023-02-15T04:54:35.261Z,25.23
2023-02-15T04:57:08.412Z,28.52
2023-02-15T04:59:41.433Z,25.30
2023-02-15T05:02:14.394Z,23.90
2023-02-15T05:04:41.268Z,25.52
2023-02-15T05:07:14.420Z,26.67
2023-02-15T05:09:41.301Z,30.50
2023-02-15T05:12:08.264Z,31.17
2023-02-15T05:14:41.373Z,27.73
2023-02-15T05:17:08.288Z,27.38
2023-02-15T05:19:35.163Z,26.08
2023-02-15T05:22:08.458Z,25.60
2023-02-15T05:24:35.340Z,26.13
2023-02-15T05:27:08.383Z,24.67
2023-02-15T05:29:35.289Z,25.58
2023-02-15T05:32:02.398Z,24.10
2023-02-15T05:34:35.400Z,24.45
2023-02-15T05:37:02.385Z,25.83
2023-02-15T05:39:35.417Z,30.88
2023-02-15T05:42:02.410Z,32.17
2023-02-15T05:44:35.423Z,29.95
2023-02-15T05:47:02.269Z,28.08
2023-02-15T05:49:35.441Z,26.10
2023-02-15T05:52:02.470Z,25.90
2023-02-15T05:54:29.399Z,26.25
2023-02-15T05:57:02.416Z,26.40
2023-02-15T05:59:35.417Z,23.70
2023-02-15T06:02:08.477Z,24.75
2023-02-15T06:04:35.400Z,23.77
2023-02-15T06:07:08.459Z,24.08
2023-02-15T06:09:42.103Z,24.05
2023-02-15T06:12:15.433Z,26.30
2023-02-15T06:14:42.322Z,24.85
2023-02-15T06:17:15.575Z,23.20
2023-02-15T06:19:42.515Z,23.42
2023-02-15T06:22:15.470Z,23.08
2023-02-15T06:24:48.465Z,23.73
2023-02-15T06:27:15.356Z,24.13
2023-02-15T06:29:48.444Z,24.58
2023-02-15T06:32:15.334Z,25.67
2023-02-15T06:34:48.963Z,27.38
2023-02-15T06:37:22.418Z,25.70
2023-02-15T06:39:49.312Z,28.42
2023-02-15T06:42:22.464Z,24.25
2023-02-15T06:44:49.407Z,24.40
2023-02-15T06:47:22.499Z,23.45
2023-02-15T06:49:55.488Z,23.70
2023-02-15T06:52:22.440Z,26.05
2023-02-15T06:54:56.501Z,25.25
2023-02-15T06:57:23.601Z,25.83
2023-02-15T06:59:57.602Z,25.73
2023-02-15T07:02:27.089Z,25.20
2023-02-15T07:04:53.982Z,24.35
2023-02-15T07:07:27.500Z,25.33
2023-02-15T07:09:54.431Z,27.42
2023-02-15T07:12:21.341Z,26.35
2023-02-15T07:14:54.494Z,27.70
2023-02-15T07:17:35.321Z,28.25
2023-02-15T07:20:21.450Z,25.65
2023-02-15T07:22:48.648Z,25.05
2023-02-15T07:25:22.410Z,31.55
2023-02-15T07:27:49.327Z,29.60
2023-02-15T07:30:24.513Z,29.50
2023-02-15T07:32:51.481Z,26.63
2023-02-15T07:35:24.473Z,26.75
2023-02-15T07:37:51.353Z,26.13
2023-02-15T07:40:24.543Z,26.70
2023-02-15T07:42:53.156Z,25.17
2023-02-15T07:45:21.068Z,26.58
2023-02-15T07:47:54.459Z,25.70
2023-02-15T07:50:21.422Z,26.98
2023-02-15T07:52:54.538Z,25.60
2023-02-15T07:55:21.572Z,26.60
2023-02-15T07:57:56.481Z,25.85
2023-02-15T08:00:23.653Z,27.73
2023-02-15T08:03:06.612Z,29.08
2023-02-15T08:05:33.700Z,27.73
2023-02-15T08:08:00.585Z,28.60
2023-02-15T08:10:34.487Z,30.38
2023-02-15T08:13:01.447Z,30.05
2023-02-15T08:15:34.520Z,31.55
2023-02-15T08:18:01.475Z,32.60
2023-02-15T08:20:34.565Z,34.30
2023-02-15T08:23:01.517Z,35.10
2023-02-15T08:25:34.594Z,36.40
2023-02-15T08:28:01.622Z,35.95
2023-02-15T08:30:28.778Z,33.72
2023-02-15T08:33:02.596Z,34.17
2023-02-15T08:35:29.509Z,33.22
2023-02-15T08:38:02.571Z,34.08
2023-02-15T08:40:29.553Z,32.03
2023-02-15T08:43:03.590Z,33.55
2023-02-15T08:45:30.659Z,32.22
2023-02-15T08:48:04.495Z,32.13
2023-02-15T08:50:31.414Z,32.28
2023-02-15T08:53:04.526Z,29.73
2023-02-15T08:55:31.532Z,30.50
2023-02-15T08:58:05.617Z,27.40
2023-02-15T09:00:32.653Z,25.98
2023-02-15T09:03:06.554Z,28.15
2023-02-15T09:05:33.568Z,27.70
2023-02-15T09:08:06.594Z,25.85
2023-02-15T09:10:40.645Z,26.55
2023-02-15T09:13:07.585Z,22.35
2023-02-15T09:15:34.505Z,22.02
2023-02-15T09:18:07.575Z,21.23
2023-02-15T09:20:37.862Z,20.10
2023-02-15T09:23:21.893Z,18.00
2023-02-15T09:25:52.364Z,19.95
2023-02-15T09:28:25.717Z,18.92
2023-02-15T09:30:52.782Z,20.40
2023-02-15T09:33:26.524Z,18.63
2023-02-15T09:35:53.473Z,20.73
2023-02-15T09:38:26.552Z,20.10
2023-02-15T09:41:25.578Z,19.92
2023-02-15T09:44:36.666Z,18.98
2023-02-15T09:48:08.581Z,19.27
2023-02-15T09:51:10.592Z,20.38
2023-02-15T09:54:15.603Z,19.90
2023-02-15T09:56:56.619Z,18.30
2023-02-15T09:59:44.589Z,19.70
2023-02-15T10:03:02.596Z,19.58
2023-02-15T10:06:01.932Z,18.42
2023-02-15T10:09:15.589Z,19.40
2023-02-15T10:12:52.596Z,19.90
2023-02-15T10:15:22.361Z,19.10
2023-02-15T10:18:36.626Z,20.92
2023-02-15T10:21:44.008Z,21.27
2023-02-15T10:24:44.686Z,19.67
2023-02-15T10:27:20.137Z,19.17
2023-02-15T10:30:05.747Z,20.00
2023-02-15T10:32:43.625Z,18.55
2023-02-15T10:35:35.502Z,19.85
2023-02-15T10:39:04.649Z,18.20
2023-02-15T10:42:00.316Z,19.20
2023-02-15T10:45:03.660Z,18.80
2023-02-15T10:47:51.594Z,20.45
2023-02-15T10:50:48.612Z,19.98
2023-02-15T10:53:18.186Z,20.73
2023-02-15T10:56:16.674Z,21.27
2023-02-15T10:59:21.726Z,20.83
2023-02-15T11:02:14.664Z,22.48
2023-02-15T11:04:48.999Z,23.42
2023-02-15T11:07:42.642Z,23.98
2023-02-15T11:10:54.123Z,23.08
2023-02-15T11:13:29.680Z,23.33
2023-02-15T11:16:06.272Z,23.58
2023-02-15T11:19:00.655Z,21.65
2023-02-15T11:21:38.459Z,20.35
2023-02-15T11:24:23.674Z,20.67
2023-02-15T11:27:08.755Z,21.20
2023-02-15T11:29:44.649Z,23.08
2023-02-15T11:32:38.536Z,21.73
2023-02-15T11:35:18.669Z,23.50
2023-02-15T11:37:56.457Z,20.30
2023-02-15T11:40:43.753Z,20.67
2023-02-15T11:43:22.898Z,19.77
2023-02-15T11:45:56.794Z,20.10
2023-02-15T11:48:23.948Z,21.75
2023-02-15T11:50:57.716Z,21.02
2023-02-15T11:53:24.744Z,21.40
2023-02-15T11:55:58.647Z,22.83
2023-02-15T11:58:53.599Z,21.98
2023-02-15T12:01:42.680Z,21.30
2023-02-15T12:04:49.663Z,20.63
2023-02-15T12:07:32.210Z,20.50
2023-02-15T12:10:29.728Z,20.52
2023-02-15T12:13:20.700Z,20.58
2023-02-15T12:15:51.147Z,21.98
2023-02-15T12:18:46.766Z,21.40
2023-02-15T12:21:34.294Z,21.10
2023-02-15T12:24:22.630Z,21.67
2023-02-15T12:27:20.329Z,21.33
2023-02-15T12:30:25.753Z,20.35
2023-02-15T12:32:59.126Z,20.70
2023-02-15T12:35:40.644Z,22.55
2023-02-15T12:38:31.754Z,21.10
2023-02-15T12:41:33.565Z,22.13
2023-02-15T12:44:23.932Z,21.88
2023-02-15T12:47:16.712Z,22.35
2023-02-15T12:49:50.692Z,21.25
2023-02-15T12:52:20.741Z,21.75
2023-02-15T12:54:54.687Z,21.67
2023-02-15T12:57:33.104Z,22.83
2023-02-15T13:00:34.803Z,23.02
2023-02-15T13:03:01.822Z,21.95
2023-02-15T13:05:51.833Z,20.63
2023-02-15T13:08:56.767Z,20.88
2023-02-15T13:11:32.049Z,20.00
2023-02-15T13:14:23.709Z,19.08
2023-02-15T13:16:53.037Z,21.40
2023-02-15T13:19:41.712Z,20.17
2023-02-15T13:22:18.827Z,20.60
2023-02-15T13:24:55.818Z,20.98
2023-02-15T13:27:49.754Z,21.83
2023-02-15T13:30:31.428Z,23.40
2023-02-15T13:33:11.737Z,21.60
2023-02-15T13:36:07.727Z,18.10
2023-02-15T13:39:08.749Z,18.38
2023-02-15T13:41:39.734Z,19.55
2023-02-15T13:45:09.795Z,19.88
2023-02-15T13:48:10.544Z,18.15
2023-02-15T13:51:10.768Z,16.50
2023-02-15T13:54:34.851Z,16.52
2023-02-15T13:57:12.863Z,18.33
2023-02-15T14:00:32.191Z,17.73
2023-02-15T14:03:08.709Z,18.70
2023-02-15T14:06:03.494Z,18.77
2023-02-15T14:08:58.812Z,18.20
2023-02-15T14:11:34.696Z,17.70
2023-02-15T14:14:28.775Z,17.45
2023-02-15T14:17:37.696Z,18.30
2023-02-15T14:20:27.796Z,17.17
2023-02-15T14:23:14.867Z,15.43
2023-02-15T14:25:50.764Z,17.80
2023-02-15T14:28:42.781Z,16.38
2023-02-15T14:31:17.781Z,16.88
2023-02-15T14:33:56.187Z,18.95
2023-02-15T14:36:30.046Z,17.25
2023-02-15T14:39:42.843Z,18.33
2023-02-15T14:42:31.059Z,17.98
2023-02-15T14:45:33.271Z,17.85
2023-02-15T14:48:18.709Z,16.90
2023-02-15T14:50:47.802Z,17.60
2023-02-15T14:53:29.834Z,17.67
2023-02-15T14:56:23.326Z,16.80
2023-02-15T14:58:59.781Z,17.30
2023-02-15T15:01:39.881Z,19.55
2023-02-15T15:04:22.900Z,17.95
2023-02-15T15:07:30.852Z,18.63
2023-02-15T15:10:05.215Z,19.42
2023-02-15T15:12:41.938Z,19.42
2023-02-15T15:15:13.174Z,17.20
2023-02-15T15:17:46.813Z,17.67
2023-02-15T15:20:30.006Z,17.80
2023-02-15T15:23:21.772Z,18.33
2023-02-15T15:26:03.088Z,17.73
2023-02-15T15:28:36.454Z,16.50
2023-02-15T15:32:08.004Z,17.02
2023-02-15T15:35:17.338Z,17.60
2023-02-15T15:38:15.786Z,17.92
2023-02-15T15:41:19.965Z,17.88
2023-02-15T15:44:36.820Z,17.77
2023-02-15T15:47:09.772Z,17.52
2023-02-15T15:49:43.822Z,17.67
2023-02-15T15:52:18.370Z,17.48
2023-02-15T15:54:53.856Z,17.40
2023-02-15T15:57:34.761Z,17.45
2023-02-15T16:00:02.014Z,19.33
2023-02-15T16:02:29.366Z,19.48
2023-02-15T16:05:14.847Z,18.65
2023-02-15T16:07:42.033Z,17.92
2023-02-15T16:10:33.903Z,20.20
2023-02-15T16:13:00.999Z,23.17
2023-02-15T16:16:04.212Z,20.45
2023-02-15T16:18:37.853Z,27.05
2023-02-15T16:21:04.939Z,28.92
2023-02-15T16:23:44.825Z,27.85
2023-02-15T16:26:46.880Z,23.83
2023-02-15T16:29:18.616Z,23.95
2023-02-15T16:32:22.888Z,28.83
2023-02-15T16:35:01.548Z,30.95
2023-02-15T16:37:39.817Z,31.50
2023-02-15T16:40:07.993Z,29.67
2023-02-15T16:42:41.902Z,36.05
2023-02-15T16:45:14.027Z,35.25
2023-02-15T16:47:49.946Z,33.65
2023-02-15T16:50:24.277Z,35.08
2023-02-15T16:53:03.872Z,37.40
2023-02-15T16:55:43.824Z,35.70
2023-02-15T16:58:30.884Z,35.92
2023-02-15T17:01:02.616Z,30.75
2023-02-15T17:03:30.121Z,30.50
2023-02-15T17:06:07.899Z,33.78
2023-02-15T17:08:48.941Z,41.70
2023-02-15T17:11:22.827Z,39.03
2023-02-15T17:14:11.920Z,37.03
2023-02-15T17:16:54.232Z,38.22
2023-02-15T17:19:57.856Z,34.72
2023-02-15T17:22:32.828Z,30.88
2023-02-15T17:25:01.692Z,35.13
2023-02-15T17:27:30.144Z,31.92
2023-02-15T17:30:10.007Z,25.75
2023-02-15T17:32:37.265Z,25.10
2023-02-15T17:35:10.847Z,35.60
2023-02-15T17:37:37.813Z,31.40
2023-02-15T17:40:35.911Z,28.95
2023-02-15T17:43:09.874Z,27.60
2023-02-15T17:45:41.910Z,23.83
2023-02-15T17:48:24.919Z,21.67
2023-02-15T17:50:52.074Z,22.42
2023-02-15T17:53:25.894Z,20.92
2023-02-15T17:55:52.933Z,19.67
2023-02-15T17:58:20.342Z,17.67
2023-02-15T18:01:05.419Z,19.65
2023-02-15T18:03:47.250Z,18.55
2023-02-15T18:06:20.962Z,17.80
2023-02-15T18:08:47.984Z,18.25
2023-02-15T18:11:21.868Z,20.60
2023-02-15T18:13:54.884Z,21.17
2023-02-15T18:16:25.055Z,23.27
2023-02-15T18:18:52.187Z,20.95
2023-02-15T18:21:25.878Z,18.90
2023-02-15T18:23:52.829Z,21.98
2023-02-15T18:26:30.928Z,22.25
2023-02-15T18:28:57.949Z,21.25
2023-02-15T18:31:31.976Z,23.10
2023-02-15T18:34:06.977Z,23.17
2023-02-15T18:36:40.239Z,28.85
2023-02-15T18:39:37.966Z,30.77
2023-02-15T18:42:05.926Z,28.80
2023-02-15T18:44:39.978Z,23.73
2023-02-15T18:47:13.900Z,23.08
2023-02-15T18:49:40.929Z,26.10
2023-02-15T18:52:30.031Z,23.30
2023-02-15T18:55:02.672Z,22.00
2023-02-15T18:57:35.973Z,23.55
2023-02-15T19:00:03.555Z,27.10
2023-02-15T19:02:37.037Z,25.73
2023-02-15T19:05:04.126Z,22.85
2023-02-15T19:07:31.262Z,22.38
2023-02-15T19:10:05.966Z,48.58
2023-02-15T19:12:33.210Z,36.78
2023-02-15T19:15:06.966Z,28.15
2023-02-15T19:17:34.142Z,25.15
2023-02-15T19:20:07.902Z,25.75
2023-02-15T19:22:40.980Z,21.20
2023-02-15T19:25:14.934Z,20.77
2023-02-15T19:27:42.044Z,21.33
2023-02-15T19:30:25.989Z,22.13
2023-02-15T19:32:53.129Z,21.70
2023-02-15T19:35:22.680Z,24.23
2023-02-15T19:38:01.012Z,20.60
2023-02-15T19:40:34.983Z,34.22
2023-02-15T19:43:10.020Z,23.90
2023-02-15T19:45:43.943Z,27.00
2023-02-15T19:48:13.268Z,36.28
2023-02-15T19:50:47.029Z,35.97
2023-02-15T19:53:25.302Z,28.83
2023-02-15T19:55:59.025Z,33.90
2023-02-15T19:58:26.023Z,26.45
2023-02-15T20:01:00.034Z,25.23
2023-02-15T20:03:27.172Z,24.83
2023-02-15T20:06:00.986Z,24.73
2023-02-15T20:08:28.782Z,24.58
2023-02-15T20:10:57.221Z,28.42
2023-02-15T20:13:30.996Z,24.13
2023-02-15T20:15:58.038Z,24.42
2023-02-15T20:18:25.162Z,22.20
2023-02-15T20:21:01.321Z,23.65
2023-02-15T20:23:41.060Z,24.88
2023-02-15T20:26:15.264Z,25.40
2023-02-15T20:28:48.984Z,27.48
2023-02-15T20:31:24.057Z,29.90
2023-02-15T20:33:51.951Z,30.70
2023-02-15T20:36:26.999Z,31.92
2023-02-15T20:39:00.824Z,33.20
2023-02-15T20:41:34.058Z,33.30
2023-02-15T20:44:01.699Z,32.05
2023-02-15T20:46:28.785Z,33.10
2023-02-15T20:49:02.112Z,43.75
2023-02-15T20:51:36.056Z,43.60
2023-02-15T20:54:19.018Z,77.18
2023-02-15T20:56:46.801Z,47.70
2023-02-15T20:59:37.004Z,32.42
2023-02-15T21:02:26.004Z,29.98
2023-02-15T21:05:00.071Z,31.90
2023-02-15T21:07:27.178Z,31.95
2023-02-15T21:09:54.341Z,37.47
2023-02-15T21:12:27.988Z,39.83
2023-02-15T21:15:02.087Z,39.22
2023-02-15T21:17:29.138Z,38.35
2023-02-15T21:20:03.125Z,36.05
2023-02-15T21:22:30.312Z,34.08
2023-02-15T21:24:57.417Z,34.38
2023-02-15T21:27:31.111Z,36.00
2023-02-15T21:29:58.333Z,34.88
2023-02-15T21:32:32.167Z,35.45
2023-02-15T21:35:06.076Z,36.30
2023-02-15T21:37:34.403Z,33.85
2023-02-15T21:40:01.522Z,35.33
2023-02-15T21:42:35.013Z,31.83
2023-02-15T21:45:09.030Z,29.08
2023-02-15T21:47:36.298Z,28.67
2023-02-15T21:50:04.778Z,28.25
2023-02-15T21:52:38.069Z,27.33
2023-02-15T21:55:19.988Z,29.90
2023-02-15T21:57:47.155Z,28.00
2023-02-15T22:00:25.025Z,30.55
2023-02-15T22:02:54.105Z,56.92
2023-02-15T22:05:40.072Z,46.40
2023-02-15T22:08:12.484Z,36.08
2023-02-15T22:10:39.674Z,41.30
2023-02-15T22:13:18.078Z,34.53
2023-02-15T22:15:45.495Z,34.28
2023-02-15T22:18:36.038Z,33.80
2023-02-15T22:21:04.077Z,80.60
2023-02-15T22:23:38.007Z,47.25
2023-02-15T22:26:19.021Z,38.22
2023-02-15T22:28:46.049Z,32.30
2023-02-15T22:31:15.335Z,30.60
2023-02-15T22:33:49.030Z,29.83
2023-02-15T22:36:36.086Z,26.45
2023-02-15T22:39:03.135Z,26.27
2023-02-15T22:41:43.093Z,25.88
2023-02-15T22:44:12.465Z,25.63
2023-02-15T22:46:47.009Z,27.02
2023-02-15T22:49:21.097Z,27.15
2023-02-15T22:51:48.780Z,26.08
2023-02-15T22:54:23.032Z,26.20
2023-02-15T22:56:54.462Z,26.58
2023-02-15T22:59:34.985Z,26.42
2023-02-15T23:02:01.906Z,27.10
2023-02-15T23:04:36.075Z,27.00
2023-02-15T23:07:23.011Z,26.67
2023-02-15T23:09:50.032Z,25.92
2023-02-15T23:12:30.060Z,26.00
2023-02-15T23:15:04.070Z,28.52
2023-02-15T23:17:31.005Z,26.90
2023-02-15T23:20:04.033Z,27.00
2023-02-15T23:22:31.102Z,26.27
2023-02-15T23:25:05.023Z,27.85
2023-02-15T23:27:38.034Z,27.33
2023-02-15T23:30:13.102Z,25.40
2023-02-15T23:32:47.082Z,24.83
2023-02-15T23:35:19.056Z,26.80
2023-02-15T23:37:53.053Z,25.02
2023-02-15T23:40:21.518Z,25.17
2023-02-15T23:42:55.055Z,26.30
2023-02-15T23:45:22.939Z,24.92
2023-02-15T23:47:50.002Z,27.33
2023-02-15T23:50:36.126Z,26.80
2023-02-15T23:53:10.146Z,25.50
2023-02-15T23:55:39.334Z,26.65
2023-02-15T23:58:09.847Z,25.92
